Strona główna
METAR-TAF:

METAR-TAF

Lotnisko :

Port lotniczy Jersey

Jersey,

Szerokość geograficzna: 49-13N, Długość geograficzna: 002-12W, wysokość: 84 m

Aktualna obserwacja pogody

Raport powstał 32 minut temu, godzina 06:20 UTC
Wiatr 10 kt od wschodnio-północny wschód
Temperatura 16°C
Wilgotność 68%
Ciśnienie 1019 hPa
Widzialność 10 km lub więcej

METAR: EGJJ 010620Z AUTO 07010KT 9999 NCD 16/10 Q1019

czas: 07:52 (06:52 UTC)

Prognoza

Raport powstał 1 godzina i 55 minut temu, godzina 04:57 UTC
Prognoza ważna od 01 godzina 06 UTC do 01 godzina 15 UTC
Wiatr 11 kt od wschodnio-północny wschód
Widzialność 10 km lub więcej
Brak chmur poniżej 1500 m i brak chmur cumulonimbus

TAF: EGJJ 010457Z 0106/0115 06011KT CAVOK

Obserwacja i prognoza pogody dla ponad 4000 lotnisk (raport METAR i TAF).

Dostępne stacje oznaczono żółtymi i czerwonymi punktami na mapie.

Najedź kursorem aby zobaczyć nazwę stacji.

Kliknij aby zobaczyć obserwacje i prognozy pogody.

Aby zmienić mapę: kliknij na zielony przycisk z czarnym krzyżykiem, aby powiększyć; na zielony przycisk z myślnikiem, aby pomniejszyć; na zielone strzałki, aby przejść do map sąsiednich.


METAR-TAF: